sensor_id;sensor_type;location;lat;lon;timestamp;temperature;humidity
3312;DHT22;1668;49.648;8.570;2023-02-01T00:02:01;5.40;98.40
3312;DHT22;1668;49.648;8.570;2023-02-01T00:04:28;5.40;99.90
3312;DHT22;1668;49.648;8.570;2023-02-01T00:06:56;5.40;99.90
3312;DHT22;1668;49.648;8.570;2023-02-01T00:09:24;5.40;99.90
3312;DHT22;1668;49.648;8.570;2023-02-01T00:11:51;5.40;99.90
3312;DHT22;1668;49.648;8.570;2023-02-01T00:14:18;5.40;99.90
3312;DHT22;1668;49.648;8.570;2023-02-01T00:16:45;5.40;99.90
3312;DHT22;1668;49.648;8.570;2023-02-01T00:19:14;5.40;99.90
3312;DHT22;1668;49.648;8.570;2023-02-01T00:21:41;5.30;99.90
3312;DHT22;1668;49.648;8.570;2023-02-01T00:24:10;5.40;99.90
3312;DHT22;1668;49.648;8.570;2023-02-01T00:26:40;5.40;99.90
3312;DHT22;1668;49.648;8.570;2023-02-01T00:29:10;5.40;99.90
3312;DHT22;1668;49.648;8.570;2023-02-01T00:31:37;5.30;99.90
3312;DHT22;1668;49.648;8.570;2023-02-01T00:34:04;5.30;99.90
3312;DHT22;1668;49.648;8.570;2023-02-01T00:36:31;5.30;99.90
3312;DHT22;1668;49.648;8.570;2023-02-01T00:38:58;5.30;99.90
3312;DHT22;1668;49.648;8.570;2023-02-01T00:41:26;5.30;99.90
3312;DHT22;1668;49.648;8.570;2023-02-01T00:43:54;5.30;99.90
3312;DHT22;1668;49.648;8.570;2023-02-01T00:46:21;5.30;99.90
3312;DHT22;1668;49.648;8.570;2023-02-01T00:48:49;5.30;99.90
3312;DHT22;1668;49.648;8.570;2023-02-01T00:51:18;5.40;99.90
3312;DHT22;1668;49.648;8.570;2023-02-01T00:53:45;5.40;99.90
3312;DHT22;1668;49.648;8.570;2023-02-01T00:56:13;5.40;99.90
3312;DHT22;1668;49.648;8.570;2023-02-01T00:58:40;5.40;99.90
3312;DHT22;1668;49.648;8.570;2023-02-01T01:01:11;5.40;99.90
3312;DHT22;1668;49.648;8.570;2023-02-01T01:03:39;5.40;99.90
3312;DHT22;1668;49.648;8.570;2023-02-01T01:06:09;5.40;99.90
3312;DHT22;1668;49.648;8.570;2023-02-01T01:08:36;5.40;99.90
3312;DHT22;1668;49.648;8.570;2023-02-01T01:11:05;5.40;99.90
3312;DHT22;1668;49.648;8.570;2023-02-01T01:13:32;5.40;99.90
3312;DHT22;1668;49.648;8.570;2023-02-01T01:16:00;5.40;99.90
3312;DHT22;1668;49.648;8.570;2023-02-01T01:18:30;5.40;99.90
3312;DHT22;1668;49.648;8.570;2023-02-01T01:20:57;5.40;99.90
3312;DHT22;1668;49.648;8.570;2023-02-01T01:23:24;5.40;99.90
3312;DHT22;1668;49.648;8.570;2023-02-01T01:25:51;5.40;99.90
3312;DHT22;1668;49.648;8.570;2023-02-01T01:28:18;5.40;99.90
3312;DHT22;1668;49.648;8.570;2023-02-01T01:30:44;5.40;99.90
3312;DHT22;1668;49.648;8.570;2023-02-01T01:33:11;5.40;99.90
3312;DHT22;1668;49.648;8.570;2023-02-01T01:35:40;5.40;99.90
3312;DHT22;1668;49.648;8.570;2023-02-01T01:38:08;5.40;99.90
3312;DHT22;1668;49.648;8.570;2023-02-01T01:40:35;5.40;99.90
3312;DHT22;1668;49.648;8.570;2023-02-01T01:43:01;5.40;99.90
3312;DHT22;1668;49.648;8.570;2023-02-01T01:45:30;5.30;99.90
3312;DHT22;1668;49.648;8.570;2023-02-01T01:47:59;5.30;99.90
3312;DHT22;1668;49.648;8.570;2023-02-01T01:50:30;5.30;99.90
3312;DHT22;1668;49.648;8.570;2023-02-01T01:53:01;5.30;99.90
3312;DHT22;1668;49.648;8.570;2023-02-01T01:55:32;5.30;99.90
3312;DHT22;1668;49.648;8.570;2023-02-01T01:58:03;5.30;99.90
3312;DHT22;1668;49.648;8.570;2023-02-01T02:00:31;5.30;99.90
3312;DHT22;1668;49.648;8.570;2023-02-01T02:03:00;5.30;99.90
3312;DHT22;1668;49.648;8.570;2023-02-01T02:05:29;5.30;99.90
3312;DHT22;1668;49.648;8.570;2023-02-01T02:07:59;5.30;99.90
3312;DHT22;1668;49.648;8.570;2023-02-01T02:10:27;5.30;99.90
3312;DHT22;1668;49.648;8.570;2023-02-01T02:13:14;5.30;99.90
3312;DHT22;1668;49.648;8.570;2023-02-01T02:15:45;5.30;99.90
3312;DHT22;1668;49.648;8.570;2023-02-01T02:18:19;5.30;99.90
3312;DHT22;1668;49.648;8.570;2023-02-01T02:21:07;5.30;99.90
3312;DHT22;1668;49.648;8.570;2023-02-01T02:24:04;5.20;99.90
3312;DHT22;1668;49.648;8.570;2023-02-01T02:26:51;5.20;99.90
3312;DHT22;1668;49.648;8.570;2023-02-01T02:29:54;5.20;99.90
3312;DHT22;1668;49.648;8.570;2023-02-01T02:33:03;5.20;99.90
3312;DHT22;1668;49.648;8.570;2023-02-01T02:35:38;5.20;99.90
3312;DHT22;1668;49.648;8.570;2023-02-01T02:38:17;5.20;99.90
3312;DHT22;1668;49.648;8.570;2023-02-01T02:40:49;5.20;99.90
3312;DHT22;1668;49.648;8.570;2023-02-01T02:43:22;5.20;99.90
3312;DHT22;1668;49.648;8.570;2023-02-01T02:46:13;5.20;99.90
3312;DHT22;1668;49.648;8.570;2023-02-01T02:49:04;5.20;99.90
3312;DHT22;1668;49.648;8.570;2023-02-01T02:51:38;5.20;99.90
3312;DHT22;1668;49.648;8.570;2023-02-01T02:54:28;5.20;99.90
3312;DHT22;1668;49.648;8.570;2023-02-01T02:57:19;5.20;99.90
3312;DHT22;1668;49.648;8.570;2023-02-01T03:00:06;5.20;99.90
3312;DHT22;1668;49.648;8.570;2023-02-01T03:02:53;5.20;99.90
3312;DHT22;1668;49.648;8.570;2023-02-01T03:05:41;5.20;99.90
3312;DHT22;1668;49.648;8.570;2023-02-01T03:08:12;5.20;99.90
3312;DHT22;1668;49.648;8.570;2023-02-01T03:10:50;5.20;99.90
3312;DHT22;1668;49.648;8.570;2023-02-01T03:13:25;5.20;99.90
3312;DHT22;1668;49.648;8.570;2023-02-01T03:15:58;5.20;99.90
3312;DHT22;1668;49.648;8.570;2023-02-01T03:18:30;5.30;99.90
3312;DHT22;1668;49.648;8.570;2023-02-01T03:20:59;5.30;99.90
3312;DHT22;1668;49.648;8.570;2023-02-01T03:23:33;5.30;99.90
3312;DHT22;1668;49.648;8.570;2023-02-01T03:26:02;5.30;99.90
3312;DHT22;1668;49.648;8.570;2023-02-01T03:28:31;5.30;99.90
3312;DHT22;1668;49.648;8.570;2023-02-01T03:31:01;5.30;99.90
3312;DHT22;1668;49.648;8.570;2023-02-01T03:33:29;5.30;99.90
3312;DHT22;1668;49.648;8.570;2023-02-01T03:36:03;5.30;99.90
3312;DHT22;1668;49.648;8.570;2023-02-01T03:38:37;5.30;99.90
3312;DHT22;1668;49.648;8.570;2023-02-01T03:41:09;5.30;99.90
3312;DHT22;1668;49.648;8.570;2023-02-01T03:43:46;5.30;99.90
3312;DHT22;1668;49.648;8.570;2023-02-01T03:46:18;5.30;99.90
3312;DHT22;1668;49.648;8.570;2023-02-01T03:48:50;5.30;99.90
3312;DHT22;1668;49.648;8.570;2023-02-01T03:51:19;5.30;99.90
3312;DHT22;1668;49.648;8.570;2023-02-01T03:53:49;5.40;99.90
3312;DHT22;1668;49.648;8.570;2023-02-01T03:56:18;5.40;99.90
3312;DHT22;1668;49.648;8.570;2023-02-01T03:58:45;5.40;99.90
3312;DHT22;1668;49.648;8.570;2023-02-01T04:01:25;5.40;99.90
3312;DHT22;1668;49.648;8.570;2023-02-01T04:03:52;5.40;99.90
3312;DHT22;1668;49.648;8.570;2023-02-01T04:06:19;5.40;99.90
3312;DHT22;1668;49.648;8.570;2023-02-01T04:08:48;5.40;99.90
3312;DHT22;1668;49.648;8.570;2023-02-01T04:11:15;5.30;99.90
3312;DHT22;1668;49.648;8.570;2023-02-01T04:13:41;5.30;99.90
3312;DHT22;1668;49.648;8.570;2023-02-01T04:16:09;5.30;99.90
3312;DHT22;1668;49.648;8.570;2023-02-01T04:18:35;5.30;99.90
3312;DHT22;1668;49.648;8.570;2023-02-01T04:21:03;5.30;99.90
3312;DHT22;1668;49.648;8.570;2023-02-01T04:23:30;5.30;99.90
3312;DHT22;1668;49.648;8.570;2023-02-01T04:26:04;5.30;99.90
3312;DHT22;1668;49.648;8.570;2023-02-01T04:28:31;5.30;99.90
3312;DHT22;1668;49.648;8.570;2023-02-01T04:30:58;5.30;99.90
3312;DHT22;1668;49.648;8.570;2023-02-01T04:33:25;5.20;99.90
3312;DHT22;1668;49.648;8.570;2023-02-01T04:35:52;5.20;99.90
3312;DHT22;1668;49.648;8.570;2023-02-01T04:38:18;5.20;99.90
3312;DHT22;1668;49.648;8.570;2023-02-01T04:40:47;5.20;99.90
3312;DHT22;1668;49.648;8.570;2023-02-01T04:43:16;5.20;99.90
3312;DHT22;1668;49.648;8.570;2023-02-01T04:45:47;5.20;99.90
3312;DHT22;1668;49.648;8.570;2023-02-01T04:48:15;5.20;99.90
3312;DHT22;1668;49.648;8.570;2023-02-01T04:50:42;5.20;99.90
3312;DHT22;1668;49.648;8.570;2023-02-01T04:53:10;5.20;99.90
3312;DHT22;1668;49.648;8.570;2023-02-01T04:55:37;5.20;99.90
3312;DHT22;1668;49.648;8.570;2023-02-01T04:58:04;5.20;99.90
3312;DHT22;1668;49.648;8.570;2023-02-01T05:00:33;5.20;99.90
3312;DHT22;1668;49.648;8.570;2023-02-01T05:03:00;5.20;99.90
3312;DHT22;1668;49.648;8.570;2023-02-01T05:05:27;5.20;99.90
3312;DHT22;1668;49.648;8.570;2023-02-01T05:07:54;5.20;99.90
3312;DHT22;1668;49.648;8.570;2023-02-01T05:10:21;5.20;99.90
3312;DHT22;1668;49.648;8.570;2023-02-01T05:12:48;5.20;99.90
3312;DHT22;1668;49.648;8.570;2023-02-01T05:15:34;5.20;99.90
3312;DHT22;1668;49.648;8.570;2023-02-01T05:18:01;5.20;99.90
3312;DHT22;1668;49.648;8.570;2023-02-01T05:20:27;5.30;99.90
3312;DHT22;1668;49.648;8.570;2023-02-01T05:22:54;5.20;99.90
3312;DHT22;1668;49.648;8.570;2023-02-01T05:25:21;5.20;99.90
3312;DHT22;1668;49.648;8.570;2023-02-01T05:27:48;5.20;99.90
3312;DHT22;1668;49.648;8.570;2023-02-01T05:30:16;5.20;99.90
3312;DHT22;1668;49.648;8.570;2023-02-01T05:32:44;5.20;99.90
3312;DHT22;1668;49.648;8.570;2023-02-01T05:35:11;5.20;99.90
3312;DHT22;1668;49.648;8.570;2023-02-01T05:37:38;5.20;99.90
3312;DHT22;1668;49.648;8.570;2023-02-01T05:40:06;5.20;99.90
3312;DHT22;1668;49.648;8.570;2023-02-01T05:42:33;5.20;99.90
3312;DHT22;1668;49.648;8.570;2023-02-01T05:44:59;5.20;99.90
3312;DHT22;1668;49.648;8.570;2023-02-01T05:47:26;5.20;99.90
3312;DHT22;1668;49.648;8.570;2023-02-01T05:49:54;5.20;99.90
3312;DHT22;1668;49.648;8.570;2023-02-01T05:52:21;5.20;99.90
3312;DHT22;1668;49.648;8.570;2023-02-01T05:54:48;5.20;99.90
3312;DHT22;1668;49.648;8.570;2023-02-01T05:57:15;5.20;99.90
3312;DHT22;1668;49.648;8.570;2023-02-01T05:59:42;5.10;99.90
3312;DHT22;1668;49.648;8.570;2023-02-01T06:02:10;5.10;99.90
3312;DHT22;1668;49.648;8.570;2023-02-01T06:04:37;5.10;99.90
3312;DHT22;1668;49.648;8.570;2023-02-01T06:07:06;5.10;99.90
3312;DHT22;1668;49.648;8.570;2023-02-01T06:09:34;5.10;99.90
3312;DHT22;1668;49.648;8.570;2023-02-01T06:12:02;5.10;99.90
3312;DHT22;1668;49.648;8.570;2023-02-01T06:14:29;5.10;99.90
3312;DHT22;1668;49.648;8.570;2023-02-01T06:16:56;5.10;99.90
3312;DHT22;1668;49.648;8.570;2023-02-01T06:19:23;5.10;99.90
3312;DHT22;1668;49.648;8.570;2023-02-01T06:21:50;5.10;99.90
3312;DHT22;1668;49.648;8.570;2023-02-01T06:24:18;5.00;99.90
3312;DHT22;1668;49.648;8.570;2023-02-01T06:26:45;5.10;99.90
3312;DHT22;1668;49.648;8.570;2023-02-01T06:29:12;5.10;99.90
3312;DHT22;1668;49.648;8.570;2023-02-01T06:31:39;5.00;99.90
3312;DHT22;1668;49.648;8.570;2023-02-01T06:34:07;5.00;99.90
3312;DHT22;1668;49.648;8.570;2023-02-01T06:36:34;5.00;99.90
3312;DHT22;1668;49.648;8.570;2023-02-01T06:39:01;5.10;99.90
3312;DHT22;1668;49.648;8.570;2023-02-01T06:41:29;5.10;99.90
3312;DHT22;1668;49.648;8.570;2023-02-01T06:43:56;5.10;99.90
3312;DHT22;1668;49.648;8.570;2023-02-01T06:46:23;5.00;99.90
3312;DHT22;1668;49.648;8.570;2023-02-01T06:48:50;5.00;99.90
3312;DHT22;1668;49.648;8.570;2023-02-01T06:51:27;5.00;99.90
3312;DHT22;1668;49.648;8.570;2023-02-01T06:53:55;5.10;99.90
3312;DHT22;1668;49.648;8.570;2023-02-01T06:56:22;5.10;99.90
3312;DHT22;1668;49.648;8.570;2023-02-01T06:58:50;5.10;99.90
3312;DHT22;1668;49.648;8.570;2023-02-01T07:01:17;5.10;99.90
3312;DHT22;1668;49.648;8.570;2023-02-01T07:03:47;5.10;99.90
3312;DHT22;1668;49.648;8.570;2023-02-01T07:06:14;5.10;99.90
3312;DHT22;1668;49.648;8.570;2023-02-01T07:08:41;5.10;99.90
3312;DHT22;1668;49.648;8.570;2023-02-01T07:11:10;5.10;99.90
3312;DHT22;1668;49.648;8.570;2023-02-01T07:13:37;5.20;99.90
3312;DHT22;1668;49.648;8.570;2023-02-01T07:16:09;5.10;99.90
3312;DHT22;1668;49.648;8.570;2023-02-01T07:18:36;5.10;99.90
3312;DHT22;1668;49.648;8.570;2023-02-01T07:21:03;5.10;99.90
3312;DHT22;1668;49.648;8.570;2023-02-01T07:23:30;5.10;99.90
3312;DHT22;1668;49.648;8.570;2023-02-01T07:25:59;5.00;99.90
3312;DHT22;1668;49.648;8.570;2023-02-01T07:28:28;5.00;99.90
3312;DHT22;1668;49.648;8.570;2023-02-01T07:31:01;5.00;99.90
3312;DHT22;1668;49.648;8.570;2023-02-01T07:33:29;5.00;99.90
3312;DHT22;1668;49.648;8.570;2023-02-01T07:35:56;5.00;99.90
3312;DHT22;1668;49.648;8.570;2023-02-01T07:38:23;5.00;99.90
3312;DHT22;1668;49.648;8.570;2023-02-01T07:40:50;5.00;99.90
3312;DHT22;1668;49.648;8.570;2023-02-01T07:43:17;5.00;99.90
3312;DHT22;1668;49.648;8.570;2023-02-01T07:45:50;4.90;99.90
3312;DHT22;1668;49.648;8.570;2023-02-01T07:48:18;4.90;99.90
3312;DHT22;1668;49.648;8.570;2023-02-01T07:50:46;4.90;99.90
3312;DHT22;1668;49.648;8.570;2023-02-01T07:53:14;4.90;99.90
3312;DHT22;1668;49.648;8.570;2023-02-01T07:55:41;4.80;99.90
3312;DHT22;1668;49.648;8.570;2023-02-01T07:58:08;4.80;99.90
3312;DHT22;1668;49.648;8.570;2023-02-01T08:00:35;4.80;99.90
3312;DHT22;1668;49.648;8.570;2023-02-01T08:03:19;4.80;99.90
3312;DHT22;1668;49.648;8.570;2023-02-01T08:05:47;4.80;99.90
3312;DHT22;1668;49.648;8.570;2023-02-01T08:08:14;4.80;99.90
3312;DHT22;1668;49.648;8.570;2023-02-01T08:10:41;4.80;99.90
3312;DHT22;1668;49.648;8.570;2023-02-01T08:13:07;4.80;99.90
3312;DHT22;1668;49.648;8.570;2023-02-01T08:15:35;4.80;99.90
3312;DHT22;1668;49.648;8.570;2023-02-01T08:18:02;4.80;99.90
3312;DHT22;1668;49.648;8.570;2023-02-01T08:20:30;4.80;99.90
3312;DHT22;1668;49.648;8.570;2023-02-01T08:22:58;4.80;99.90
3312;DHT22;1668;49.648;8.570;2023-02-01T08:25:25;4.80;99.90
3312;DHT22;1668;49.648;8.570;2023-02-01T08:27:53;4.80;99.90
3312;DHT22;1668;49.648;8.570;2023-02-01T08:30:20;4.80;99.90
3312;DHT22;1668;49.648;8.570;2023-02-01T08:32:47;4.80;99.90
3312;DHT22;1668;49.648;8.570;2023-02-01T08:35:14;4.80;99.90
3312;DHT22;1668;49.648;8.570;2023-02-01T08:37:41;4.90;99.90
3312;DHT22;1668;49.648;8.570;2023-02-01T08:40:10;4.90;99.90
3312;DHT22;1668;49.648;8.570;2023-02-01T08:42:39;4.90;99.90
3312;DHT22;1668;49.648;8.570;2023-02-01T08:45:19;4.90;99.90
3312;DHT22;1668;49.648;8.570;2023-02-01T08:47:46;5.00;99.90
3312;DHT22;1668;49.648;8.570;2023-02-01T08:50:14;5.00;99.90
3312;DHT22;1668;49.648;8.570;2023-02-01T08:52:41;5.00;99.90
3312;DHT22;1668;49.648;8.570;2023-02-01T08:55:10;5.00;99.90
3312;DHT22;1668;49.648;8.570;2023-02-01T08:57:37;5.10;99.90
3312;DHT22;1668;49.648;8.570;2023-02-01T09:00:05;5.10;99.90
3312;DHT22;1668;49.648;8.570;2023-02-01T09:02:34;5.10;99.90
3312;DHT22;1668;49.648;8.570;2023-02-01T09:05:01;5.20;99.90
3312;DHT22;1668;49.648;8.570;2023-02-01T09:07:28;5.20;99.90
3312;DHT22;1668;49.648;8.570;2023-02-01T09:09:54;5.20;99.90
3312;DHT22;1668;49.648;8.570;2023-02-01T09:12:23;5.20;99.90
3312;DHT22;1668;49.648;8.570;2023-02-01T09:14:50;5.20;99.90
3312;DHT22;1668;49.648;8.570;2023-02-01T09:17:17;5.20;99.90
3312;DHT22;1668;49.648;8.570;2023-02-01T09:19:44;5.30;99.90
3312;DHT22;1668;49.648;8.570;2023-02-01T09:22:10;5.30;99.90
3312;DHT22;1668;49.648;8.570;2023-02-01T09:24:37;5.30;99.90
3312;DHT22;1668;49.648;8.570;2023-02-01T09:27:05;5.30;99.90
3312;DHT22;1668;49.648;8.570;2023-02-01T09:29:33;5.30;99.90
3312;DHT22;1668;49.648;8.570;2023-02-01T09:32:00;5.30;99.90
3312;DHT22;1668;49.648;8.570;2023-02-01T09:34:27;5.30;99.90
3312;DHT22;1668;49.648;8.570;2023-02-01T09:36:54;5.40;99.90
3312;DHT22;1668;49.648;8.570;2023-02-01T09:39:21;5.40;99.90
3312;DHT22;1668;49.648;8.570;2023-02-01T09:41:56;5.40;99.90
3312;DHT22;1668;49.648;8.570;2023-02-01T09:47:25;5.40;99.90
3312;DHT22;1668;49.648;8.570;2023-02-01T09:50:15;5.40;99.90
3312;DHT22;1668;49.648;8.570;2023-02-01T09:52:50;5.40;99.90
3312;DHT22;1668;49.648;8.570;2023-02-01T09:55:41;5.50;99.90
3312;DHT22;1668;49.648;8.570;2023-02-01T09:58:33;5.50;99.90
3312;DHT22;1668;49.648;8.570;2023-02-01T10:01:23;5.50;99.90
3312;DHT22;1668;49.648;8.570;2023-02-01T10:04:13;5.50;99.90
3312;DHT22;1668;49.648;8.570;2023-02-01T10:07:09;5.50;99.90
3312;DHT22;1668;49.648;8.570;2023-02-01T10:10:01;5.50;99.90
3312;DHT22;1668;49.648;8.570;2023-02-01T10:13:06;5.60;95.80
3312;DHT22;1668;49.648;8.570;2023-02-01T10:16:10;5.60;1.00
3312;DHT22;1668;49.648;8.570;2023-02-01T10:19:17;5.60;1.00
3312;DHT22;1668;49.648;8.570;2023-02-01T10:22:10;5.60;1.00
3312;DHT22;1668;49.648;8.570;2023-02-01T10:25:03;5.60;1.00
3312;DHT22;1668;49.648;8.570;2023-02-01T10:27:52;5.60;1.00
3312;DHT22;1668;49.648;8.570;2023-02-01T10:30:42;5.60;1.00
3312;DHT22;1668;49.648;8.570;2023-02-01T10:33:33;5.60;1.00
3312;DHT22;1668;49.648;8.570;2023-02-01T10:36:25;5.60;1.00
3312;DHT22;1668;49.648;8.570;2023-02-01T10:39:15;5.70;1.00
3312;DHT22;1668;49.648;8.570;2023-02-01T10:42:02;5.70;1.00
3312;DHT22;1668;49.648;8.570;2023-02-01T10:44:49;5.70;1.00
3312;DHT22;1668;49.648;8.570;2023-02-01T10:47:38;5.70;1.00
3312;DHT22;1668;49.648;8.570;2023-02-01T10:50:33;5.70;1.00
3312;DHT22;1668;49.648;8.570;2023-02-01T10:53:25;5.80;1.00
3312;DHT22;1668;49.648;8.570;2023-02-01T10:56:23;5.80;1.00
3312;DHT22;1668;49.648;8.570;2023-02-01T10:59:15;5.90;1.00
3312;DHT22;1668;49.648;8.570;2023-02-01T11:02:13;5.90;99.90
3312;DHT22;1668;49.648;8.570;2023-02-01T11:05:04;6.00;99.90
3312;DHT22;1668;49.648;8.570;2023-02-01T11:07:53;6.00;99.90
3312;DHT22;1668;49.648;8.570;2023-02-01T11:10:42;6.10;99.90
3312;DHT22;1668;49.648;8.570;2023-02-01T11:13:31;6.10;99.90
3312;DHT22;1668;49.648;8.570;2023-02-01T11:16:23;6.20;99.90
3312;DHT22;1668;49.648;8.570;2023-02-01T11:19:15;6.20;90.40
3312;DHT22;1668;49.648;8.570;2023-02-01T11:22:04;6.20;97.20
3312;DHT22;1668;49.648;8.570;2023-02-01T11:24:52;6.20;99.90
3312;DHT22;1668;49.648;8.570;2023-02-01T11:27:40;6.30;99.90
3312;DHT22;1668;49.648;8.570;2023-02-01T11:30:32;6.30;99.90
3312;DHT22;1668;49.648;8.570;2023-02-01T11:33:24;6.30;99.90
3312;DHT22;1668;49.648;8.570;2023-02-01T11:36:17;6.30;66.30
3312;DHT22;1668;49.648;8.570;2023-02-01T11:39:18;6.30;47.10
3312;DHT22;1668;49.648;8.570;2023-02-01T11:42:11;6.30;58.50
3312;DHT22;1668;49.648;8.570;2023-02-01T11:45:25;6.30;93.60
3312;DHT22;1668;49.648;8.570;2023-02-01T11:48:15;6.40;57.90
3312;DHT22;1668;49.648;8.570;2023-02-01T11:51:13;6.40;1.00
3312;DHT22;1668;49.648;8.570;2023-02-01T11:54:20;6.40;43.80
3312;DHT22;1668;49.648;8.570;2023-02-01T11:57:19;6.40;99.90
3312;DHT22;1668;49.648;8.570;2023-02-01T12:00:35;6.50;16.50
3312;DHT22;1668;49.648;8.570;2023-02-01T12:03:45;6.40;41.10
3312;DHT22;1668;49.648;8.570;2023-02-01T12:06:47;6.40;1.00
3312;DHT22;1668;49.648;8.570;2023-02-01T12:09:44;6.40;1.00
3312;DHT22;1668;49.648;8.570;2023-02-01T12:12:27;6.40;1.00
3312;DHT22;1668;49.648;8.570;2023-02-01T12:15:19;6.40;1.00
3312;DHT22;1668;49.648;8.570;2023-02-01T12:21:02;6.40;1.00
3312;DHT22;1668;49.648;8.570;2023-02-01T12:23:46;6.40;99.90
3312;DHT22;1668;49.648;8.570;2023-02-01T12:26:40;6.40;99.90
3312;DHT22;1668;49.648;8.570;2023-02-01T12:29:27;6.40;99.90
3312;DHT22;1668;49.648;8.570;2023-02-01T12:32:06;6.40;99.90
3312;DHT22;1668;49.648;8.570;2023-02-01T12:34:53;6.40;1.00
3312;DHT22;1668;49.648;8.570;2023-02-01T12:37:33;6.40;99.90
3312;DHT22;1668;49.648;8.570;2023-02-01T12:40:15;6.40;1.00
3312;DHT22;1668;49.648;8.570;2023-02-01T12:42:52;6.40;99.90
3312;DHT22;1668;49.648;8.570;2023-02-01T12:45:25;6.40;99.90
3312;DHT22;1668;49.648;8.570;2023-02-01T12:47:56;6.40;1.00
3312;DHT22;1668;49.648;8.570;2023-02-01T12:50:29;6.40;99.90
3312;DHT22;1668;49.648;8.570;2023-02-01T12:53:07;6.40;99.90
3312;DHT22;1668;49.648;8.570;2023-02-01T12:55:38;6.40;99.90
3312;DHT22;1668;49.648;8.570;2023-02-01T12:58:15;6.50;99.90
3312;DHT22;1668;49.648;8.570;2023-02-01T13:00:45;6.40;99.90
3312;DHT22;1668;49.648;8.570;2023-02-01T13:03:26;6.50;99.90
3312;DHT22;1668;49.648;8.570;2023-02-01T13:06:01;6.50;99.90
3312;DHT22;1668;49.648;8.570;2023-02-01T13:08:39;6.50;99.90
3312;DHT22;1668;49.648;8.570;2023-02-01T13:11:12;6.50;99.90
3312;DHT22;1668;49.648;8.570;2023-02-01T13:13:48;6.50;99.90
3312;DHT22;1668;49.648;8.570;2023-02-01T13:16:24;6.60;52.30
3312;DHT22;1668;49.648;8.570;2023-02-01T13:18:59;6.60;19.10
3312;DHT22;1668;49.648;8.570;2023-02-01T13:21:32;6.60;1.00
3312;DHT22;1668;49.648;8.570;2023-02-01T13:24:00;6.60;1.00
3312;DHT22;1668;49.648;8.570;2023-02-01T13:26:27;6.60;1.00
3312;DHT22;1668;49.648;8.570;2023-02-01T13:28:57;6.60;99.90
3312;DHT22;1668;49.648;8.570;2023-02-01T13:31:47;6.60;50.50
3312;DHT22;1668;49.648;8.570;2023-02-01T13:37:43;6.60;1.00
3312;DHT22;1668;49.648;8.570;2023-02-01T13:43:09;6.60;94.40
3312;DHT22;1668;49.648;8.570;2023-02-01T13:45:43;6.60;1.00
3312;DHT22;1668;49.648;8.570;2023-02-01T13:48:19;6.60;1.00
3312;DHT22;1668;49.648;8.570;2023-02-01T13:50:51;6.60;1.00
3312;DHT22;1668;49.648;8.570;2023-02-01T13:53:23;6.60;1.00
3312;DHT22;1668;49.648;8.570;2023-02-01T13:55:57;6.50;21.90
3312;DHT22;1668;49.648;8.570;2023-02-01T13:58:30;6.50;1.00
3312;DHT22;1668;49.648;8.570;2023-02-01T14:01:31;6.50;1.00
3312;DHT22;1668;49.648;8.570;2023-02-01T14:03:59;6.60;1.00
3312;DHT22;1668;49.648;8.570;2023-02-01T14:06:45;6.60;1.00
3312;DHT22;1668;49.648;8.570;2023-02-01T14:09:17;6.50;1.00
3312;DHT22;1668;49.648;8.570;2023-02-01T14:11:47;6.50;1.00
3312;DHT22;1668;49.648;8.570;2023-02-01T14:14:45;6.50;36.00
3312;DHT22;1668;49.648;8.570;2023-02-01T14:17:39;6.50;91.50
3312;DHT22;1668;49.648;8.570;2023-02-01T14:23:25;6.50;99.90
3312;DHT22;1668;49.648;8.570;2023-02-01T14:26:24;6.50;1.00
3312;DHT22;1668;49.648;8.570;2023-02-01T14:29:01;6.50;4.30
3312;DHT22;1668;49.648;8.570;2023-02-01T14:31:44;6.60;1.00
3312;DHT22;1668;49.648;8.570;2023-02-01T14:34:19;6.50;1.00
3312;DHT22;1668;49.648;8.570;2023-02-01T14:36:51;6.50;1.00
3312;DHT22;1668;49.648;8.570;2023-02-01T14:39:31;6.50;40.70
3312;DHT22;1668;49.648;8.570;2023-02-01T14:42:03;6.50;1.00
3312;DHT22;1668;49.648;8.570;2023-02-01T14:44:33;6.50;1.00
3312;DHT22;1668;49.648;8.570;2023-02-01T14:47:32;6.50;1.00
3312;DHT22;1668;49.648;8.570;2023-02-01T14:53:14;6.50;1.00
3312;DHT22;1668;49.648;8.570;2023-02-01T14:55:46;6.50;1.00
3312;DHT22;1668;49.648;8.570;2023-02-01T14:58:27;6.60;99.90
3312;DHT22;1668;49.648;8.570;2023-02-01T15:00:57;6.60;99.90
3312;DHT22;1668;49.648;8.570;2023-02-01T15:03:41;6.60;1.00
3312;DHT22;1668;49.648;8.570;2023-02-01T15:06:21;6.60;1.00
3312;DHT22;1668;49.648;8.570;2023-02-01T15:08:52;6.60;99.90
3312;DHT22;1668;49.648;8.570;2023-02-01T15:11:20;6.60;1.00
3312;DHT22;1668;49.648;8.570;2023-02-01T15:13:50;6.70;99.90
3312;DHT22;1668;49.648;8.570;2023-02-01T15:16:21;6.70;1.00
3312;DHT22;1668;49.648;8.570;2023-02-01T15:18:48;6.70;99.90
3312;DHT22;1668;49.648;8.570;2023-02-01T15:21:18;6.80;99.90
3312;DHT22;1668;49.648;8.570;2023-02-01T15:23:45;6.80;99.90
3312;DHT22;1668;49.648;8.570;2023-02-01T15:26:27;6.80;99.90
3312;DHT22;1668;49.648;8.570;2023-02-01T15:28:58;6.90;99.90
3312;DHT22;1668;49.648;8.570;2023-02-01T15:31:33;6.90;1.00
3312;DHT22;1668;49.648;8.570;2023-02-01T15:34:00;6.90;53.50
3312;DHT22;1668;49.648;8.570;2023-02-01T15:36:28;6.90;99.90
3312;DHT22;1668;49.648;8.570;2023-02-01T15:39:18;7.00;1.00
3312;DHT22;1668;49.648;8.570;2023-02-01T15:42:10;7.00;1.00
3312;DHT22;1668;49.648;8.570;2023-02-01T15:44:43;7.00;1.00
3312;DHT22;1668;49.648;8.570;2023-02-01T15:47:15;7.00;99.90
3312;DHT22;1668;49.648;8.570;2023-02-01T15:49:45;7.00;99.90
3312;DHT22;1668;49.648;8.570;2023-02-01T15:52:21;7.00;99.90
3312;DHT22;1668;49.648;8.570;2023-02-01T15:54:50;7.00;1.00
3312;DHT22;1668;49.648;8.570;2023-02-01T15:57:20;7.00;99.90
3312;DHT22;1668;49.648;8.570;2023-02-01T15:59:52;6.90;99.90
3312;DHT22;1668;49.648;8.570;2023-02-01T16:02:32;6.90;99.90
3312;DHT22;1668;49.648;8.570;2023-02-01T16:05:01;6.90;99.90
3312;DHT22;1668;49.648;8.570;2023-02-01T16:07:30;6.90;1.00
3312;DHT22;1668;49.648;8.570;2023-02-01T16:09:59;6.90;99.90
3312;DHT22;1668;49.648;8.570;2023-02-01T16:12:33;6.80;99.90
3312;DHT22;1668;49.648;8.570;2023-02-01T16:15:03;6.80;99.90
3312;DHT22;1668;49.648;8.570;2023-02-01T16:17:30;6.80;1.00
3312;DHT22;1668;49.648;8.570;2023-02-01T16:19:57;6.80;1.00
3312;DHT22;1668;49.648;8.570;2023-02-01T16:22:25;6.80;99.90
3312;DHT22;1668;49.648;8.570;2023-02-01T16:24:51;6.80;1.00
3312;DHT22;1668;49.648;8.570;2023-02-01T16:27:18;6.80;99.90
3312;DHT22;1668;49.648;8.570;2023-02-01T16:29:46;6.80;1.00
3312;DHT22;1668;49.648;8.570;2023-02-01T16:32:17;6.80;1.00
3312;DHT22;1668;49.648;8.570;2023-02-01T16:34:45;6.70;20.60
3312;DHT22;1668;49.648;8.570;2023-02-01T16:37:13;6.70;38.10
3312;DHT22;1668;49.648;8.570;2023-02-01T16:39:41;6.70;1.00
3312;DHT22;1668;49.648;8.570;2023-02-01T16:42:11;6.70;1.00
3312;DHT22;1668;49.648;8.570;2023-02-01T16:44:38;6.70;1.00
3312;DHT22;1668;49.648;8.570;2023-02-01T16:47:11;6.70;99.90
3312;DHT22;1668;49.648;8.570;2023-02-01T16:49:41;6.70;13.90
3312;DHT22;1668;49.648;8.570;2023-02-01T16:52:13;6.70;1.00
3312;DHT22;1668;49.648;8.570;2023-02-01T16:54:40;6.70;97.50
3312;DHT22;1668;49.648;8.570;2023-02-01T16:57:11;6.70;99.90
3312;DHT22;1668;49.648;8.570;2023-02-01T16:59:39;6.70;1.00
3312;DHT22;1668;49.648;8.570;2023-02-01T17:02:10;6.70;99.90
3312;DHT22;1668;49.648;8.570;2023-02-01T17:04:37;6.70;99.90
3312;DHT22;1668;49.648;8.570;2023-02-01T17:07:06;6.70;99.90
3312;DHT22;1668;49.648;8.570;2023-02-01T17:09:35;6.70;99.90
3312;DHT22;1668;49.648;8.570;2023-02-01T17:12:03;6.70;1.00
3312;DHT22;1668;49.648;8.570;2023-02-01T17:14:31;6.70;1.00
3312;DHT22;1668;49.648;8.570;2023-02-01T17:16:59;6.70;1.00
3312;DHT22;1668;49.648;8.570;2023-02-01T17:19:26;6.70;1.00
3312;DHT22;1668;49.648;8.570;2023-02-01T17:21:54;6.70;1.00
3312;DHT22;1668;49.648;8.570;2023-02-01T17:24:24;6.60;99.90
3312;DHT22;1668;49.648;8.570;2023-02-01T17:26:51;6.60;99.90